createdAt,value
2023-03-24T00:00:10.724Z,6.47
2023-03-24T00:02:41.532Z,8.33
2023-03-24T00:05:11.621Z,6.75
2023-03-24T00:07:39.932Z,9.20
2023-03-24T00:10:09.612Z,9.38
2023-03-24T00:12:37.913Z,8.90
2023-03-24T00:15:08.367Z,7.18
2023-03-24T00:17:36.160Z,10.63
2023-03-24T00:20:07.453Z,9.55
2023-03-24T00:22:35.569Z,9.02
2023-03-24T00:25:03.731Z,9.90
2023-03-24T00:27:30.996Z,7.62
2023-03-24T00:29:58.927Z,6.78
2023-03-24T00:32:26.830Z,7.37
2023-03-24T00:34:53.704Z,7.32
2023-03-24T00:37:20.689Z,8.82
2023-03-24T00:39:47.319Z,9.10
2023-03-24T00:42:13.867Z,7.03
2023-03-24T00:44:40.559Z,9.05
2023-03-24T00:47:07.084Z,7.60
2023-03-24T00:49:52.629Z,10.40
2023-03-24T00:52:21.772Z,9.73
2023-03-24T00:54:58.581Z,11.25
2023-03-24T00:57:25.541Z,8.60
2023-03-24T00:59:53.712Z,8.32
2023-03-24T01:02:25.494Z,11.35
2023-03-24T01:04:55.804Z,11.30
2023-03-24T01:07:23.975Z,9.65
2023-03-24T01:09:56.861Z,8.35
2023-03-24T01:12:28.301Z,7.93
2023-03-24T01:14:55.304Z,8.77
2023-03-24T01:17:24.802Z,9.77
2023-03-24T01:19:52.518Z,8.63
2023-03-24T01:22:20.165Z,10.18
2023-03-24T01:24:48.031Z,7.75
2023-03-24T01:27:15.759Z,10.90
2023-03-24T01:29:42.415Z,8.38
2023-03-24T01:32:09.391Z,8.13
2023-03-24T01:34:36.171Z,10.35
2023-03-24T01:37:03.839Z,12.37
2023-03-24T01:39:30.955Z,9.10
2023-03-24T01:41:57.978Z,8.52
2023-03-24T01:44:36.070Z,7.57
2023-03-24T01:47:07.194Z,10.63
2023-03-24T01:49:40.294Z,11.63
2023-03-24T01:52:13.289Z,10.93
2023-03-24T01:54:45.579Z,8.77
2023-03-24T01:59:46.309Z,8.80
2023-03-24T02:02:14.048Z,11.27
2023-03-24T02:04:45.277Z,11.07
2023-03-24T02:07:20.677Z,13.25
2023-03-24T02:09:47.926Z,10.63
2023-03-24T02:12:16.334Z,7.25
2023-03-24T02:14:43.878Z,8.88
2023-03-24T02:17:53.939Z,11.40
2023-03-24T02:20:38.588Z,8.80
2023-03-24T02:23:31.512Z,10.65
2023-03-24T02:26:26.598Z,12.70
2023-03-24T02:29:28.595Z,10.77
2023-03-24T02:32:25.838Z,10.32
2023-03-24T02:35:23.480Z,9.45
2023-03-24T02:38:30.452Z,12.07
2023-03-24T02:41:15.199Z,11.30
2023-03-24T02:44:12.811Z,11.52
2023-03-24T02:46:47.527Z,13.90
2023-03-24T02:49:34.380Z,9.43
2023-03-24T02:52:10.048Z,10.77
2023-03-24T02:54:54.694Z,10.20
2023-03-24T02:57:47.064Z,10.25
2023-03-24T03:02:58.635Z,8.85
2023-03-24T03:05:34.035Z,11.65
2023-03-24T03:08:05.193Z,11.65
2023-03-24T03:10:37.542Z,11.40
2023-03-24T03:13:12.993Z,12.32
2023-03-24T03:15:44.844Z,10.70
2023-03-24T03:18:22.326Z,12.87
2023-03-24T03:20:55.118Z,12.02
2023-03-24T03:25:56.880Z,11.45
2023-03-24T03:28:29.274Z,12.43
2023-03-24T03:31:00.424Z,12.27
2023-03-24T03:33:36.838Z,12.05
2023-03-24T03:36:11.681Z,11.30
2023-03-24T03:38:48.988Z,13.60
2023-03-24T03:41:17.806Z,9.38
2023-03-24T03:43:48.068Z,12.15
2023-03-24T03:46:16.216Z,10.82
2023-03-24T03:48:43.598Z,11.45
2023-03-24T03:51:14.341Z,11.77
2023-03-24T03:53:51.444Z,11.65
2023-03-24T03:56:22.876Z,13.88
2023-03-24T03:58:52.823Z,14.73
2023-03-24T04:01:22.622Z,10.40
2023-03-24T04:04:32.632Z,13.00
2023-03-24T04:07:30.242Z,14.30
2023-03-24T04:10:30.485Z,12.27
2023-03-24T04:13:18.862Z,7.40
2023-03-24T04:15:57.994Z,14.82
2023-03-24T04:18:39.037Z,10.30
2023-03-24T04:21:33.906Z,11.10
2023-03-24T04:24:28.456Z,14.73
2023-03-24T04:27:06.082Z,10.60
2023-03-24T04:30:01.880Z,12.93
2023-03-24T04:32:46.788Z,13.32
2023-03-24T04:35:30.738Z,12.52
2023-03-24T04:38:22.667Z,13.27
2023-03-24T04:40:54.974Z,12.18
2023-03-24T04:43:36.018Z,12.48
2023-03-24T04:46:05.188Z,13.25
2023-03-24T04:48:32.799Z,14.30
2023-03-24T04:51:03.146Z,15.82
2023-03-24T04:53:30.827Z,13.18
2023-03-24T04:56:40.159Z,12.77
2023-03-24T04:59:07.698Z,12.30
2023-03-24T05:01:36.846Z,11.60
2023-03-24T05:04:07.798Z,15.57
2023-03-24T05:06:34.552Z,14.98
2023-03-24T05:09:01.147Z,15.85
2023-03-24T05:11:28.639Z,18.45
2023-03-24T05:13:56.984Z,17.95
2023-03-24T05:16:24.228Z,16.85
2023-03-24T05:18:51.398Z,15.52
2023-03-24T05:21:19.939Z,12.55
2023-03-24T05:23:46.641Z,13.85
2023-03-24T05:26:13.343Z,16.30
2023-03-24T05:28:42.661Z,13.90
2023-03-24T05:31:11.192Z,13.90
2023-03-24T05:33:38.127Z,12.07
2023-03-24T05:36:05.425Z,14.55
2023-03-24T05:38:32.537Z,17.48
2023-03-24T05:41:00.714Z,17.08
2023-03-24T05:43:28.357Z,16.77
2023-03-24T05:45:55.941Z,17.33
2023-03-24T05:48:22.930Z,12.57
2023-03-24T05:50:51.935Z,18.40
2023-03-24T05:53:20.066Z,21.73
2023-03-24T05:55:49.162Z,17.45
2023-03-24T05:58:20.624Z,17.77
2023-03-24T06:00:47.795Z,18.70
2023-03-24T06:03:17.042Z,18.90
2023-03-24T06:05:45.161Z,17.25
2023-03-24T06:08:11.919Z,20.60
2023-03-24T06:10:40.147Z,20.73
2023-03-24T06:13:08.426Z,24.33
2023-03-24T06:15:38.761Z,22.73
2023-03-24T06:18:07.318Z,19.65
2023-03-24T06:20:35.360Z,21.52
2023-03-24T06:23:02.771Z,23.12
2023-03-24T06:25:30.670Z,18.58
2023-03-24T06:28:03.308Z,14.00
2023-03-24T06:30:31.048Z,21.65
2023-03-24T06:32:57.636Z,25.70
2023-03-24T06:35:24.314Z,24.05
2023-03-24T06:37:51.272Z,20.45
2023-03-24T06:40:17.877Z,26.67
2023-03-24T06:42:45.875Z,19.77
2023-03-24T06:45:12.812Z,22.50
2023-03-24T06:47:39.614Z,23.27
2023-03-24T06:50:07.110Z,21.60
2023-03-24T06:52:35.005Z,23.48
2023-03-24T06:55:02.912Z,19.65
2023-03-24T06:57:30.114Z,25.65
2023-03-24T07:00:05.074Z,20.55
2023-03-24T07:02:35.008Z,26.20
2023-03-24T07:05:06.663Z,22.75
2023-03-24T07:10:07.504Z,19.98
2023-03-24T07:12:34.941Z,19.75
2023-03-24T07:15:03.822Z,26.00
2023-03-24T07:17:30.941Z,21.80
2023-03-24T07:19:58.783Z,18.33
2023-03-24T07:22:27.660Z,22.02
2023-03-24T07:25:00.997Z,23.33
2023-03-24T07:27:32.239Z,23.48
2023-03-24T07:29:59.860Z,27.83
2023-03-24T07:32:29.407Z,21.17
2023-03-24T07:34:56.939Z,20.35
2023-03-24T07:37:23.614Z,26.37
2023-03-24T07:39:50.289Z,20.92
2023-03-24T07:42:17.249Z,19.17
2023-03-24T07:44:45.802Z,19.62
2023-03-24T07:47:12.579Z,22.85
2023-03-24T07:49:39.368Z,19.95
2023-03-24T07:52:06.732Z,19.70
2023-03-24T07:54:34.147Z,23.85
2023-03-24T07:57:00.784Z,21.12
2023-03-24T07:59:28.121Z,15.05
2023-03-24T08:01:58.437Z,17.90
2023-03-24T08:04:28.836Z,26.55
2023-03-24T08:06:56.636Z,24.02
2023-03-24T08:09:24.472Z,18.87
2023-03-24T08:11:51.285Z,23.12
2023-03-24T08:14:17.888Z,20.30
2023-03-24T08:16:45.688Z,23.87
2023-03-24T08:19:12.521Z,22.08
2023-03-24T08:21:39.025Z,24.27
2023-03-24T08:24:06.334Z,21.25
2023-03-24T08:26:34.602Z,24.63
2023-03-24T08:29:01.691Z,23.05
2023-03-24T08:31:36.313Z,17.30
2023-03-24T08:34:04.230Z,21.08
2023-03-24T08:36:31.172Z,20.40
2023-03-24T08:38:57.681Z,21.12
2023-03-24T08:41:34.298Z,23.40
2023-03-24T08:44:06.264Z,17.55
2023-03-24T08:46:34.345Z,14.32
2023-03-24T08:49:01.885Z,17.48
2023-03-24T08:51:28.671Z,20.10
2023-03-24T08:53:55.579Z,19.52
2023-03-24T08:56:22.458Z,18.10
2023-03-24T08:58:50.654Z,17.70
2023-03-24T09:01:17.990Z,20.05
2023-03-24T09:03:46.297Z,15.77
2023-03-24T09:06:15.039Z,19.42
2023-03-24T09:08:42.074Z,13.68
2023-03-24T09:11:15.977Z,16.02
2023-03-24T09:13:42.895Z,16.15
2023-03-24T09:16:09.849Z,11.63
2023-03-24T09:18:36.998Z,16.85
2023-03-24T09:21:04.385Z,16.12
2023-03-24T09:23:31.008Z,13.25
2023-03-24T09:25:58.238Z,13.93
2023-03-24T09:28:25.329Z,15.38
2023-03-24T09:30:57.780Z,14.82
2023-03-24T09:33:24.611Z,13.48
2023-03-24T09:36:00.934Z,15.77
2023-03-24T09:38:29.211Z,13.80
2023-03-24T09:41:01.850Z,14.32
2023-03-24T09:43:51.644Z,13.52
2023-03-24T09:46:34.853Z,13.10
2023-03-24T09:49:03.504Z,10.35
2023-03-24T09:51:37.662Z,11.15
2023-03-24T09:54:43.974Z,13.18
2023-03-24T09:57:36.635Z,11.93
2023-03-24T10:00:24.977Z,13.37
2023-03-24T10:02:54.252Z,11.98
2023-03-24T10:05:44.866Z,14.20
2023-03-24T10:08:18.021Z,10.93
2023-03-24T10:11:14.940Z,18.90
2023-03-24T10:13:55.059Z,19.35
2023-03-24T10:16:31.631Z,23.05
2023-03-24T10:19:24.841Z,27.60
2023-03-24T10:22:02.601Z,18.15
2023-03-24T10:24:41.639Z,24.40
2023-03-24T10:27:24.177Z,23.85
2023-03-24T10:29:59.306Z,17.83
2023-03-24T10:32:31.595Z,18.65
2023-03-24T10:35:08.403Z,18.33
2023-03-24T10:37:36.606Z,14.82
2023-03-24T10:40:15.819Z,19.90
2023-03-24T10:42:44.428Z,13.02
2023-03-24T10:45:18.269Z,11.75
2023-03-24T10:47:46.926Z,9.38
2023-03-24T10:50:17.190Z,11.90
2023-03-24T10:52:48.108Z,9.38
2023-03-24T10:55:18.444Z,7.35
2023-03-24T10:57:47.734Z,7.40
2023-03-24T11:00:26.052Z,9.85
2023-03-24T11:02:57.332Z,8.27
2023-03-24T11:05:30.207Z,7.15
2023-03-24T11:08:12.348Z,7.75
2023-03-24T11:10:39.597Z,8.80
2023-03-24T11:13:18.829Z,7.68
2023-03-24T11:16:14.024Z,8.15
2023-03-24T11:18:56.686Z,10.88
2023-03-24T11:21:23.947Z,10.98
2023-03-24T11:23:50.766Z,6.68
2023-03-24T11:26:22.126Z,9.30
2023-03-24T11:28:55.529Z,7.55
2023-03-24T11:31:25.810Z,10.35
2023-03-24T11:34:07.889Z,10.15
2023-03-24T11:36:43.840Z,9.30
2023-03-24T11:39:18.644Z,7.12
2023-03-24T11:42:21.581Z,7.80
2023-03-24T11:44:51.588Z,9.95
2023-03-24T11:47:37.455Z,11.15
2023-03-24T11:50:26.587Z,7.32
2023-03-24T11:53:00.524Z,5.12
2023-03-24T11:55:37.712Z,5.28
2023-03-24T11:58:12.640Z,7.82
2023-03-24T12:00:46.316Z,8.80
2023-03-24T12:03:49.454Z,6.37
2023-03-24T12:06:33.391Z,8.13
2023-03-24T12:09:10.900Z,8.68
2023-03-24T12:12:18.194Z,8.18
2023-03-24T12:15:24.525Z,5.05
2023-03-24T12:18:08.134Z,8.38
2023-03-24T12:20:50.564Z,6.10
2023-03-24T12:23:32.967Z,3.25
2023-03-24T12:26:14.085Z,4.45
2023-03-24T12:29:20.761Z,5.75
2023-03-24T12:31:54.385Z,5.12
2023-03-24T12:34:43.018Z,5.00
2023-03-24T12:37:30.493Z,4.78
2023-03-24T12:40:24.652Z,5.40
2023-03-24T12:43:03.916Z,5.50
2023-03-24T12:45:45.251Z,5.15
2023-03-24T12:48:28.451Z,4.55
2023-03-24T12:51:34.646Z,5.62
2023-03-24T12:54:26.960Z,5.30
2023-03-24T12:57:00.168Z,6.12
2023-03-24T12:59:51.754Z,5.70
2023-03-24T13:02:44.268Z,5.70
2023-03-24T13:05:23.709Z,6.20
2023-03-24T13:07:57.299Z,5.60
2023-03-24T13:10:27.355Z,6.75
2023-03-24T13:13:02.098Z,5.32
2023-03-24T13:15:39.678Z,9.27
2023-03-24T13:18:34.671Z,7.45
2023-03-24T13:21:14.462Z,5.80
2023-03-24T13:24:06.289Z,6.22
2023-03-24T13:26:53.748Z,5.90
2023-03-24T13:29:48.395Z,6.40
2023-03-24T13:32:24.261Z,8.85
2023-03-24T13:35:30.816Z,6.32
2023-03-24T13:38:05.277Z,6.87
2023-03-24T13:40:38.645Z,5.70
2023-03-24T13:43:11.544Z,5.47
2023-03-24T13:45:47.216Z,5.12
2023-03-24T13:48:25.538Z,5.85
2023-03-24T13:51:06.761Z,4.15
2023-03-24T13:53:43.100Z,4.43
2023-03-24T13:56:13.624Z,6.20
2023-03-24T13:59:04.401Z,6.25
2023-03-24T14:01:35.797Z,5.50
2023-03-24T14:04:25.408Z,5.37
2023-03-24T14:06:55.128Z,4.60
2023-03-24T14:09:25.247Z,5.20
2023-03-24T14:12:20.128Z,4.35
2023-03-24T14:15:15.530Z,4.40
2023-03-24T14:17:45.440Z,6.93
2023-03-24T14:20:23.378Z,4.87
2023-03-24T14:22:51.102Z,7.20
2023-03-24T14:25:23.378Z,6.57
2023-03-24T14:27:52.037Z,6.07
2023-03-24T14:30:29.895Z,9.27
2023-03-24T14:32:59.541Z,5.85
2023-03-24T14:35:38.965Z,7.03
2023-03-24T14:38:21.724Z,5.85
2023-03-24T14:40:52.278Z,6.03
2023-03-24T14:43:27.820Z,5.65
2023-03-24T14:45:59.389Z,4.70
2023-03-24T14:48:31.722Z,5.43
2023-03-24T14:51:05.589Z,6.82
2023-03-24T14:53:37.150Z,4.40
2023-03-24T14:56:07.394Z,4.53
2023-03-24T14:58:38.424Z,4.05
2023-03-24T15:01:07.960Z,4.40
2023-03-24T15:03:49.800Z,5.68
2023-03-24T15:06:19.432Z,5.93
2023-03-24T15:08:50.872Z,5.93
2023-03-24T15:11:23.708Z,4.70
2023-03-24T15:13:52.783Z,9.13
2023-03-24T15:16:24.864Z,7.25
2023-03-24T15:19:20.986Z,5.50
2023-03-24T15:21:57.941Z,5.65
2023-03-24T15:24:30.298Z,5.12
2023-03-24T15:27:19.978Z,5.62
2023-03-24T15:29:53.986Z,5.00
2023-03-24T15:32:23.991Z,4.35
2023-03-24T15:34:53.735Z,4.37
2023-03-24T15:37:24.042Z,5.28
2023-03-24T15:40:01.830Z,5.72
2023-03-24T15:42:45.142Z,5.43
2023-03-24T15:45:26.797Z,6.25
2023-03-24T15:47:55.347Z,6.32
2023-03-24T15:50:40.084Z,7.78
2023-03-24T15:53:24.463Z,4.15
2023-03-24T15:56:17.116Z,5.35
2023-03-24T15:58:48.867Z,5.87
2023-03-24T16:01:20.438Z,5.28
2023-03-24T16:03:47.713Z,5.57
2023-03-24T16:06:25.042Z,5.30
2023-03-24T16:08:52.390Z,5.05
2023-03-24T16:11:18.850Z,5.07
2023-03-24T16:13:47.432Z,5.72
2023-03-24T16:16:27.331Z,4.95
2023-03-24T16:18:55.945Z,5.78
2023-03-24T16:21:26.381Z,5.68
2023-03-24T16:23:55.243Z,5.80
2023-03-24T16:26:25.052Z,5.72
2023-03-24T16:28:53.173Z,5.57
2023-03-24T16:31:30.214Z,4.82
2023-03-24T16:33:58.062Z,5.43
2023-03-24T16:36:26.055Z,4.78
2023-03-24T16:38:55.837Z,5.60
2023-03-24T16:41:22.996Z,7.10
2023-03-24T16:43:50.389Z,7.05
2023-03-24T16:46:36.023Z,7.28
2023-03-24T16:49:05.308Z,7.00
2023-03-24T16:51:31.973Z,5.57
2023-03-24T16:53:58.658Z,9.10
2023-03-24T16:56:25.921Z,5.70
2023-03-24T16:58:53.840Z,7.20
2023-03-24T17:01:29.440Z,10.50
2023-03-24T17:03:58.503Z,6.87
2023-03-24T17:06:27.406Z,8.98
2023-03-24T17:08:54.435Z,8.52
2023-03-24T17:11:32.012Z,9.90
2023-03-24T17:14:04.031Z,14.68
2023-03-24T17:16:35.762Z,18.70
2023-03-24T17:19:04.122Z,12.05
2023-03-24T17:21:33.740Z,9.52
2023-03-24T17:24:00.711Z,6.30
2023-03-24T17:26:27.389Z,6.93
2023-03-24T17:28:54.190Z,8.60
2023-03-24T17:31:20.749Z,8.10
2023-03-24T17:33:47.459Z,8.13
2023-03-24T17:36:16.413Z,8.52
2023-03-24T17:38:46.477Z,7.75
2023-03-24T17:41:13.155Z,8.23
2023-03-24T17:43:39.997Z,7.80
2023-03-24T17:46:06.814Z,9.40
2023-03-24T17:48:33.663Z,8.60
2023-03-24T17:51:00.404Z,6.70
2023-03-24T17:53:27.122Z,7.82
2023-03-24T17:55:56.518Z,5.87
2023-03-24T17:58:25.983Z,6.50
2023-03-24T18:00:53.806Z,5.62
2023-03-24T18:03:22.115Z,6.45
2023-03-24T18:05:49.399Z,6.12
2023-03-24T18:08:16.065Z,5.35
2023-03-24T18:10:42.889Z,7.78
2023-03-24T18:13:10.377Z,7.25
2023-03-24T18:15:41.246Z,6.35
2023-03-24T18:18:08.548Z,4.93
2023-03-24T18:20:36.277Z,7.43
2023-03-24T18:23:03.856Z,5.15
2023-03-24T18:25:31.505Z,7.43
2023-03-24T18:27:58.049Z,6.90
2023-03-24T18:30:24.753Z,6.95
2023-03-24T18:32:51.473Z,8.18
2023-03-24T18:35:18.112Z,6.55
2023-03-24T18:37:44.917Z,10.15
2023-03-24T18:40:12.128Z,18.37
2023-03-24T18:42:39.046Z,19.02
2023-03-24T18:45:06.521Z,17.02
2023-03-24T18:47:34.384Z,9.05
2023-03-24T18:50:01.306Z,10.30
2023-03-24T18:52:29.511Z,6.72
2023-03-24T18:54:56.552Z,6.47
2023-03-24T18:57:24.235Z,5.50
2023-03-24T18:59:50.848Z,7.65
2023-03-24T19:02:17.636Z,7.05
2023-03-24T19:04:44.417Z,8.13
2023-03-24T19:07:13.925Z,6.12
2023-03-24T19:09:41.633Z,6.47
2023-03-24T19:12:09.138Z,7.65
2023-03-24T19:14:35.986Z,8.07
2023-03-24T19:17:03.168Z,7.50
2023-03-24T19:19:30.769Z,7.80
2023-03-24T19:21:58.709Z,6.78
2023-03-24T19:24:26.090Z,6.30
2023-03-24T19:26:53.492Z,7.00
2023-03-24T19:29:20.954Z,10.68
2023-03-24T19:31:48.868Z,6.87
2023-03-24T19:34:15.335Z,8.50
2023-03-24T19:36:44.013Z,8.25
2023-03-24T19:39:13.328Z,9.75
2023-03-24T19:41:40.682Z,11.35
2023-03-24T19:44:07.594Z,8.52
2023-03-24T19:46:34.454Z,9.18
2023-03-24T19:49:03.752Z,8.13
2023-03-24T19:51:30.452Z,9.05
2023-03-24T19:53:58.583Z,9.77
2023-03-24T19:56:25.212Z,8.20
2023-03-24T19:58:51.939Z,11.02
2023-03-24T20:01:20.712Z,7.87
2023-03-24T20:03:47.532Z,7.03
2023-03-24T20:06:14.211Z,8.85
2023-03-24T20:08:40.818Z,9.13
2023-03-24T20:11:10.352Z,6.47
2023-03-24T20:13:37.211Z,7.75
2023-03-24T20:16:04.113Z,8.60
2023-03-24T20:18:31.125Z,11.15
2023-03-24T20:21:00.702Z,8.88
2023-03-24T20:23:27.838Z,9.27
2023-03-24T20:25:59.215Z,10.15
2023-03-24T20:28:26.699Z,9.85
2023-03-24T20:31:02.713Z,10.73
2023-03-24T20:33:30.025Z,9.30
2023-03-24T20:35:56.842Z,8.85
2023-03-24T20:38:24.168Z,7.97
2023-03-24T20:41:00.722Z,7.80
2023-03-24T20:43:28.015Z,9.07
2023-03-24T20:45:56.595Z,10.23
2023-03-24T20:48:24.313Z,9.75
2023-03-24T20:50:50.852Z,10.25
2023-03-24T20:53:17.970Z,7.78
2023-03-24T20:55:48.483Z,9.35
2023-03-24T20:58:16.238Z,10.40
2023-03-24T21:00:46.670Z,7.68
2023-03-24T21:03:13.239Z,8.05
2023-03-24T21:05:39.824Z,6.55
2023-03-24T21:08:06.583Z,7.85
2023-03-24T21:10:35.933Z,10.07
2023-03-24T21:13:03.742Z,10.50
2023-03-24T21:15:31.110Z,8.50
2023-03-24T21:17:58.091Z,11.23
2023-03-24T21:20:27.721Z,7.50
2023-03-24T21:22:55.100Z,10.98
2023-03-24T21:25:26.123Z,8.63
2023-03-24T21:27:54.113Z,9.77
2023-03-24T21:30:21.444Z,7.72
2023-03-24T21:32:50.544Z,9.13
2023-03-24T21:35:19.072Z,9.50
2023-03-24T21:37:46.358Z,6.87
2023-03-24T21:40:17.179Z,10.43
2023-03-24T21:42:46.114Z,7.22
2023-03-24T21:45:16.597Z,7.32
2023-03-24T21:47:45.410Z,4.30
2023-03-24T21:50:18.207Z,7.47
2023-03-24T21:55:15.226Z,4.72
2023-03-24T21:57:43.633Z,7.45
2023-03-24T22:00:14.210Z,7.43
2023-03-24T22:02:44.844Z,6.40
2023-03-24T22:05:13.289Z,7.65
2023-03-24T22:07:40.679Z,6.55
2023-03-24T22:10:09.908Z,6.07
2023-03-24T22:12:36.419Z,8.10
2023-03-24T22:15:03.461Z,5.12
2023-03-24T22:17:30.706Z,4.78
2023-03-24T22:19:57.187Z,7.57
2023-03-24T22:22:23.678Z,7.00
2023-03-24T22:24:50.666Z,6.05
2023-03-24T22:27:17.265Z,5.97
2023-03-24T22:29:43.790Z,7.50
2023-03-24T22:32:10.539Z,5.82
2023-03-24T22:34:37.161Z,6.75
2023-03-24T22:37:03.572Z,6.43
2023-03-24T22:39:31.337Z,7.35
2023-03-24T22:41:57.922Z,7.32
2023-03-24T22:44:24.602Z,6.47
2023-03-24T22:46:51.396Z,6.90
2023-03-24T22:49:18.079Z,6.28
2023-03-24T22:51:44.664Z,7.93
2023-03-24T22:54:11.462Z,7.22
2023-03-24T22:56:37.954Z,7.32
2023-03-24T22:59:04.567Z,4.60
2023-03-24T23:01:31.416Z,4.85
2023-03-24T23:03:57.932Z,6.82
2023-03-24T23:06:24.493Z,4.85
2023-03-24T23:08:52.878Z,4.93
2023-03-24T23:11:19.546Z,5.90
2023-03-24T23:13:49.705Z,6.47
2023-03-24T23:16:17.118Z,7.12
2023-03-24T23:18:44.020Z,5.60
2023-03-24T23:21:14.414Z,5.28
2023-03-24T23:23:42.325Z,5.43
2023-03-24T23:26:13.150Z,6.18
2023-03-24T23:28:52.771Z,4.93
2023-03-24T23:31:23.965Z,5.85
2023-03-24T23:33:55.773Z,8.40
2023-03-24T23:36:25.516Z,5.22
2023-03-24T23:38:54.012Z,4.30
2023-03-24T23:41:21.105Z,6.47
2023-03-24T23:43:49.657Z,5.40
2023-03-24T23:46:17.727Z,7.05
2023-03-24T23:48:44.242Z,6.60
2023-03-24T23:51:11.401Z,6.28
2023-03-24T23:53:39.231Z,5.03
2023-03-24T23:56:08.148Z,4.62
2023-03-24T23:58:37.541Z,5.07
